sensor_id;sensor_type;location;lat;lon;timestamp;P1;durP1;ratioP1;P2;durP2;ratioP2
11394;SDS011;5753;54.402;10.220;2022-07-12T03:54:58;5.65;;;4.43;;
11394;SDS011;5753;54.402;10.220;2022-07-12T03:57:27;7.68;;;4.93;;
11394;SDS011;5753;54.402;10.220;2022-07-12T03:59:54;4.68;;;3.88;;
11394;SDS011;5753;54.402;10.220;2022-07-12T04:02:21;5.32;;;4.50;;
11394;SDS011;5753;54.402;10.220;2022-07-12T04:04:47;3.90;;;3.42;;
11394;SDS011;5753;54.402;10.220;2022-07-12T04:07:14;5.35;;;4.03;;
11394;SDS011;5753;54.402;10.220;2022-07-12T04:09:40;7.47;;;5.40;;
11394;SDS011;5753;54.402;10.220;2022-07-12T04:12:07;4.45;;;3.03;;
11394;SDS011;5753;54.402;10.220;2022-07-12T04:14:33;5.45;;;4.93;;
11394;SDS011;5753;54.402;10.220;2022-07-12T04:17:00;6.63;;;5.20;;
11394;SDS011;5753;54.402;10.220;2022-07-12T04:19:26;5.68;;;4.90;;
11394;SDS011;5753;54.402;10.220;2022-07-12T04:21:56;4.43;;;3.92;;
11394;SDS011;5753;54.402;10.220;2022-07-12T04:24:23;4.93;;;3.90;;
11394;SDS011;5753;54.402;10.220;2022-07-12T04:26:50;6.65;;;3.63;;
11394;SDS011;5753;54.402;10.220;2022-07-12T04:29:16;8.32;;;4.38;;
11394;SDS011;5753;54.402;10.220;2022-07-12T04:31:43;4.18;;;3.45;;
11394;SDS011;5753;54.402;10.220;2022-07-12T04:34:09;5.30;;;4.20;;
11394;SDS011;5753;54.402;10.220;2022-07-12T04:36:35;6.90;;;4.38;;
11394;SDS011;5753;54.402;10.220;2022-07-12T04:39:02;7.45;;;4.55;;
11394;SDS011;5753;54.402;10.220;2022-07-12T04:41:28;4.60;;;3.60;;
11394;SDS011;5753;54.402;10.220;2022-07-12T04:43:55;4.72;;;4.32;;
11394;SDS011;5753;54.402;10.220;2022-07-12T04:46:21;6.07;;;3.78;;
11394;SDS011;5753;54.402;10.220;2022-07-12T04:48:47;5.15;;;3.70;;
11394;SDS011;5753;54.402;10.220;2022-07-12T04:51:13;6.88;;;3.80;;
11394;SDS011;5753;54.402;10.220;2022-07-12T04:53:41;4.78;;;3.85;;
11394;SDS011;5753;54.402;10.220;2022-07-12T04:56:07;4.88;;;4.03;;
11394;SDS011;5753;54.402;10.220;2022-07-12T04:58:33;3.83;;;3.08;;
11394;SDS011;5753;54.402;10.220;2022-07-12T05:01:00;7.22;;;3.92;;
11394;SDS011;5753;54.402;10.220;2022-07-12T05:03:26;5.47;;;3.45;;
11394;SDS011;5753;54.402;10.220;2022-07-12T05:05:54;4.72;;;4.13;;
11394;SDS011;5753;54.402;10.220;2022-07-12T05:08:20;3.22;;;2.75;;
11394;SDS011;5753;54.402;10.220;2022-07-12T05:10:47;4.80;;;3.88;;
11394;SDS011;5753;54.402;10.220;2022-07-12T05:13:13;4.75;;;3.33;;
11394;SDS011;5753;54.402;10.220;2022-07-12T05:15:39;3.97;;;3.22;;
11394;SDS011;5753;54.402;10.220;2022-07-12T05:18:06;4.97;;;3.83;;
11394;SDS011;5753;54.402;10.220;2022-07-12T05:20:32;6.10;;;3.60;;
11394;SDS011;5753;54.402;10.220;2022-07-12T05:22:58;4.80;;;3.95;;
11394;SDS011;5753;54.402;10.220;2022-07-12T05:25:24;11.57;;;4.88;;
11394;SDS011;5753;54.402;10.220;2022-07-12T05:27:50;3.60;;;3.03;;
11394;SDS011;5753;54.402;10.220;2022-07-12T05:30:17;5.30;;;2.85;;
11394;SDS011;5753;54.402;10.220;2022-07-12T05:32:43;4.30;;;3.17;;
11394;SDS011;5753;54.402;10.220;2022-07-12T05:35:09;8.73;;;2.97;;
11394;SDS011;5753;54.402;10.220;2022-07-12T05:37:35;4.43;;;3.95;;
11394;SDS011;5753;54.402;10.220;2022-07-12T05:40:01;2.70;;;2.45;;
11394;SDS011;5753;54.402;10.220;2022-07-12T05:42:27;3.42;;;3.13;;
11394;SDS011;5753;54.402;10.220;2022-07-12T05:44:54;6.75;;;2.67;;
11394;SDS011;5753;54.402;10.220;2022-07-12T05:47:20;4.68;;;3.10;;
11394;SDS011;5753;54.402;10.220;2022-07-12T05:49:46;3.28;;;2.97;;
11394;SDS011;5753;54.402;10.220;2022-07-12T05:52:12;5.13;;;2.97;;
11394;SDS011;5753;54.402;10.220;2022-07-12T05:54:57;4.07;;;2.33;;
11394;SDS011;5753;54.402;10.220;2022-07-12T05:57:23;2.88;;;2.58;;
11394;SDS011;5753;54.402;10.220;2022-07-12T05:59:49;3.28;;;2.97;;
11394;SDS011;5753;54.402;10.220;2022-07-12T06:02:15;3.72;;;3.35;;
11394;SDS011;5753;54.402;10.220;2022-07-12T06:04:41;5.03;;;2.88;;
11394;SDS011;5753;54.402;10.220;2022-07-12T06:07:07;3.60;;;1.92;;
11394;SDS011;5753;54.402;10.220;2022-07-12T06:09:34;3.22;;;1.88;;
11394;SDS011;5753;54.402;10.220;2022-07-12T06:12:00;3.08;;;2.55;;
11394;SDS011;5753;54.402;10.220;2022-07-12T06:14:27;5.97;;;3.22;;
11394;SDS011;5753;54.402;10.220;2022-07-12T06:16:53;2.50;;;2.30;;
11394;SDS011;5753;54.402;10.220;2022-07-12T06:19:19;2.95;;;2.75;;
11394;SDS011;5753;54.402;10.220;2022-07-12T06:21:48;3.85;;;3.10;;
11394;SDS011;5753;54.402;10.220;2022-07-12T06:24:14;3.45;;;2.75;;
11394;SDS011;5753;54.402;10.220;2022-07-12T06:26:41;6.28;;;2.60;;
11394;SDS011;5753;54.402;10.220;2022-07-12T06:29:07;3.95;;;3.03;;
11394;SDS011;5753;54.402;10.220;2022-07-12T06:31:34;2.45;;;1.77;;
11394;SDS011;5753;54.402;10.220;2022-07-12T06:34:00;3.08;;;2.28;;
11394;SDS011;5753;54.402;10.220;2022-07-12T06:36:26;6.47;;;4.00;;
11394;SDS011;5753;54.402;10.220;2022-07-12T06:38:52;3.95;;;2.85;;
11394;SDS011;5753;54.402;10.220;2022-07-12T06:41:19;2.78;;;2.03;;
11394;SDS011;5753;54.402;10.220;2022-07-12T06:43:45;3.50;;;2.08;;
11394;SDS011;5753;54.402;10.220;2022-07-12T06:46:11;3.58;;;2.80;;
11394;SDS011;5753;54.402;10.220;2022-07-12T06:48:37;8.27;;;4.60;;
11394;SDS011;5753;54.402;10.220;2022-07-12T06:51:03;3.88;;;3.15;;
11394;SDS011;5753;54.402;10.220;2022-07-12T06:53:29;6.93;;;2.92;;
11394;SDS011;5753;54.402;10.220;2022-07-12T06:55:55;5.22;;;3.28;;
11394;SDS011;5753;54.402;10.220;2022-07-12T06:58:22;25.20;;;4.90;;
11394;SDS011;5753;54.402;10.220;2022-07-12T07:00:48;5.15;;;3.22;;
11394;SDS011;5753;54.402;10.220;2022-07-12T07:03:14;6.32;;;2.92;;
11394;SDS011;5753;54.402;10.220;2022-07-12T07:05:40;4.72;;;2.55;;
11394;SDS011;5753;54.402;10.220;2022-07-12T07:08:06;5.65;;;3.65;;
11394;SDS011;5753;54.402;10.220;2022-07-12T07:10:32;6.45;;;3.03;;
11394;SDS011;5753;54.402;10.220;2022-07-12T07:12:59;4.43;;;2.20;;
11394;SDS011;5753;54.402;10.220;2022-07-12T07:15:25;3.45;;;2.42;;
11394;SDS011;5753;54.402;10.220;2022-07-12T07:17:51;8.65;;;3.88;;
11394;SDS011;5753;54.402;10.220;2022-07-12T07:20:18;5.32;;;2.60;;
11394;SDS011;5753;54.402;10.220;2022-07-12T07:22:44;3.45;;;2.00;;
11394;SDS011;5753;54.402;10.220;2022-07-12T07:25:10;6.68;;;2.90;;
11394;SDS011;5753;54.402;10.220;2022-07-12T07:27:36;4.25;;;2.97;;
11394;SDS011;5753;54.402;10.220;2022-07-12T07:30:04;1.85;;;1.45;;
11394;SDS011;5753;54.402;10.220;2022-07-12T07:32:49;3.05;;;1.95;;
11394;SDS011;5753;54.402;10.220;2022-07-12T07:35:15;4.13;;;2.85;;
11394;SDS011;5753;54.402;10.220;2022-07-12T07:37:41;3.25;;;2.72;;
11394;SDS011;5753;54.402;10.220;2022-07-12T07:40:08;2.33;;;1.80;;
11394;SDS011;5753;54.402;10.220;2022-07-12T07:42:34;4.38;;;2.33;;
11394;SDS011;5753;54.402;10.220;2022-07-12T07:45:00;6.20;;;3.47;;
11394;SDS011;5753;54.402;10.220;2022-07-12T07:47:28;5.38;;;2.28;;
11394;SDS011;5753;54.402;10.220;2022-07-12T07:49:54;3.78;;;2.60;;
11394;SDS011;5753;54.402;10.220;2022-07-12T07:52:21;3.88;;;2.72;;
11394;SDS011;5753;54.402;10.220;2022-07-12T07:54:47;6.22;;;3.08;;
11394;SDS011;5753;54.402;10.220;2022-07-12T07:57:13;4.38;;;2.97;;
11394;SDS011;5753;54.402;10.220;2022-07-12T07:59:39;4.13;;;2.10;;
11394;SDS011;5753;54.402;10.220;2022-07-12T08:02:05;3.47;;;2.13;;
11394;SDS011;5753;54.402;10.220;2022-07-12T08:04:35;2.20;;;1.45;;
11394;SDS011;5753;54.402;10.220;2022-07-12T08:07:01;4.85;;;1.50;;
11394;SDS011;5753;54.402;10.220;2022-07-12T08:09:28;2.42;;;1.77;;
11394;SDS011;5753;54.402;10.220;2022-07-12T08:11:54;3.50;;;1.80;;
11394;SDS011;5753;54.402;10.220;2022-07-12T08:14:20;3.10;;;2.17;;
11394;SDS011;5753;54.402;10.220;2022-07-12T08:16:46;5.20;;;2.22;;
11394;SDS011;5753;54.402;10.220;2022-07-12T08:19:12;4.47;;;2.78;;
11394;SDS011;5753;54.402;10.220;2022-07-12T08:21:38;3.45;;;2.03;;
11394;SDS011;5753;54.402;10.220;2022-07-12T08:24:04;3.28;;;2.22;;
11394;SDS011;5753;54.402;10.220;2022-07-12T08:26:31;3.83;;;2.70;;
11394;SDS011;5753;54.402;10.220;2022-07-12T08:28:57;1.52;;;1.30;;
11394;SDS011;5753;54.402;10.220;2022-07-12T08:31:23;5.20;;;2.30;;
11394;SDS011;5753;54.402;10.220;2022-07-12T08:33:49;2.17;;;1.40;;
11394;SDS011;5753;54.402;10.220;2022-07-12T08:36:16;1.52;;;1.20;;
11394;SDS011;5753;54.402;10.220;2022-07-12T08:38:42;3.03;;;1.23;;
11394;SDS011;5753;54.402;10.220;2022-07-12T08:41:12;3.80;;;1.98;;
11394;SDS011;5753;54.402;10.220;2022-07-12T08:43:39;2.05;;;1.63;;
11394;SDS011;5753;54.402;10.220;2022-07-12T08:46:07;2.15;;;1.42;;
11394;SDS011;5753;54.402;10.220;2022-07-12T08:48:34;4.40;;;3.35;;
11394;SDS011;5753;54.402;10.220;2022-07-12T08:51:08;1.50;;;1.20;;
11394;SDS011;5753;54.402;10.220;2022-07-12T08:53:36;1.85;;;1.60;;
11394;SDS011;5753;54.402;10.220;2022-07-12T08:56:03;3.20;;;1.48;;
11394;SDS011;5753;54.402;10.220;2022-07-12T08:58:31;1.75;;;1.65;;
11394;SDS011;5753;54.402;10.220;2022-07-12T09:00:57;2.00;;;1.02;;
11394;SDS011;5753;54.402;10.220;2022-07-12T09:03:23;1.80;;;1.63;;
11394;SDS011;5753;54.402;10.220;2022-07-12T09:05:54;1.27;;;1.05;;
11394;SDS011;5753;54.402;10.220;2022-07-12T09:08:27;1.52;;;1.42;;
11394;SDS011;5753;54.402;10.220;2022-07-12T09:10:58;1.67;;;1.05;;
11394;SDS011;5753;54.402;10.220;2022-07-12T09:16:17;1.25;;;1.05;;
11394;SDS011;5753;54.402;10.220;2022-07-12T09:18:51;1.35;;;1.13;;
11394;SDS011;5753;54.402;10.220;2022-07-12T09:21:36;1.10;;;0.93;;
11394;SDS011;5753;54.402;10.220;2022-07-12T09:24:10;1.05;;;0.95;;
11394;SDS011;5753;54.402;10.220;2022-07-12T09:26:36;0.80;;;0.70;;
11394;SDS011;5753;54.402;10.220;2022-07-12T09:29:06;2.42;;;1.10;;
11394;SDS011;5753;54.402;10.220;2022-07-12T09:31:40;1.33;;;1.23;;
11394;SDS011;5753;54.402;10.220;2022-07-12T09:34:27;1.48;;;0.98;;
11394;SDS011;5753;54.402;10.220;2022-07-12T09:37:13;0.68;;;0.68;;
11394;SDS011;5753;54.402;10.220;2022-07-12T09:39:40;1.73;;;1.00;;
11394;SDS011;5753;54.402;10.220;2022-07-12T09:42:07;1.35;;;1.25;;
11394;SDS011;5753;54.402;10.220;2022-07-12T09:44:38;1.60;;;0.68;;
11394;SDS011;5753;54.402;10.220;2022-07-12T09:47:12;1.08;;;0.98;;
11394;SDS011;5753;54.402;10.220;2022-07-12T09:49:43;1.23;;;0.93;;
11394;SDS011;5753;54.402;10.220;2022-07-12T09:52:18;2.10;;;1.00;;
11394;SDS011;5753;54.402;10.220;2022-07-12T09:54:46;1.00;;;0.90;;
11394;SDS011;5753;54.402;10.220;2022-07-12T09:57:37;1.77;;;1.20;;
11394;SDS011;5753;54.402;10.220;2022-07-12T10:00:04;1.15;;;1.00;;
11394;SDS011;5753;54.402;10.220;2022-07-12T10:02:34;1.48;;;1.30;;
11394;SDS011;5753;54.402;10.220;2022-07-12T10:05:02;0.85;;;0.73;;
11394;SDS011;5753;54.402;10.220;2022-07-12T10:07:32;0.95;;;0.90;;
11394;SDS011;5753;54.402;10.220;2022-07-12T10:09:58;2.55;;;1.23;;
11394;SDS011;5753;54.402;10.220;2022-07-12T10:12:25;1.00;;;0.93;;
11394;SDS011;5753;54.402;10.220;2022-07-12T10:14:55;1.35;;;1.13;;
11394;SDS011;5753;54.402;10.220;2022-07-12T10:17:28;0.82;;;0.82;;
11394;SDS011;5753;54.402;10.220;2022-07-12T10:22:47;1.50;;;1.15;;
11394;SDS011;5753;54.402;10.220;2022-07-12T10:25:33;1.10;;;0.98;;
11394;SDS011;5753;54.402;10.220;2022-07-12T10:28:00;1.25;;;1.08;;
11394;SDS011;5753;54.402;10.220;2022-07-12T10:30:27;1.85;;;0.73;;
11394;SDS011;5753;54.402;10.220;2022-07-12T10:32:54;1.42;;;1.30;;
11394;SDS011;5753;54.402;10.220;2022-07-12T10:35:30;0.82;;;0.82;;
11394;SDS011;5753;54.402;10.220;2022-07-12T10:40:39;0.70;;;0.70;;
11394;SDS011;5753;54.402;10.220;2022-07-12T10:58:54;0.87;;;0.77;;
11394;SDS011;5753;54.402;10.220;2022-07-12T11:01:25;1.10;;;1.00;;
11394;SDS011;5753;54.402;10.220;2022-07-12T11:03:56;1.15;;;1.00;;
11394;SDS011;5753;54.402;10.220;2022-07-12T11:06:33;0.73;;;0.70;;
11394;SDS011;5753;54.402;10.220;2022-07-12T11:09:04;1.75;;;0.80;;
11394;SDS011;5753;54.402;10.220;2022-07-12T11:11:33;1.70;;;1.20;;
11394;SDS011;5753;54.402;10.220;2022-07-12T11:14:05;1.17;;;0.90;;
11394;SDS011;5753;54.402;10.220;2022-07-12T11:16:31;0.95;;;0.77;;
11394;SDS011;5753;54.402;10.220;2022-07-12T11:18:58;1.08;;;0.98;;
11394;SDS011;5753;54.402;10.220;2022-07-12T11:21:25;1.00;;;0.80;;
11394;SDS011;5753;54.402;10.220;2022-07-12T11:23:51;1.23;;;1.02;;
11394;SDS011;5753;54.402;10.220;2022-07-12T11:26:19;0.60;;;0.60;;
11394;SDS011;5753;54.402;10.220;2022-07-12T11:28:45;1.00;;;0.85;;
11394;SDS011;5753;54.402;10.220;2022-07-12T11:31:14;0.90;;;0.90;;
11394;SDS011;5753;54.402;10.220;2022-07-12T11:33:43;0.52;;;0.50;;
11394;SDS011;5753;54.402;10.220;2022-07-12T11:36:12;0.63;;;0.63;;
11394;SDS011;5753;54.402;10.220;2022-07-12T11:38:40;1.88;;;0.70;;
11394;SDS011;5753;54.402;10.220;2022-07-12T11:41:07;0.65;;;0.63;;
11394;SDS011;5753;54.402;10.220;2022-07-12T11:43:34;1.90;;;0.75;;
11394;SDS011;5753;54.402;10.220;2022-07-12T11:46:02;1.08;;;0.82;;
11394;SDS011;5753;54.402;10.220;2022-07-12T11:48:30;0.57;;;0.57;;
11394;SDS011;5753;54.402;10.220;2022-07-12T11:51:03;0.68;;;0.68;;
11394;SDS011;5753;54.402;10.220;2022-07-12T11:53:31;0.80;;;0.80;;
11394;SDS011;5753;54.402;10.220;2022-07-12T11:55:59;0.77;;;0.75;;
11394;SDS011;5753;54.402;10.220;2022-07-12T11:58:27;0.85;;;0.85;;
11394;SDS011;5753;54.402;10.220;2022-07-12T12:00:54;1.02;;;0.70;;
11394;SDS011;5753;54.402;10.220;2022-07-12T12:03:21;1.60;;;0.70;;
11394;SDS011;5753;54.402;10.220;2022-07-12T12:05:49;0.60;;;0.60;;
11394;SDS011;5753;54.402;10.220;2022-07-12T12:08:16;2.25;;;0.98;;
11394;SDS011;5753;54.402;10.220;2022-07-12T12:10:51;1.10;;;1.00;;
11394;SDS011;5753;54.402;10.220;2022-07-12T12:13:20;2.35;;;1.00;;
11394;SDS011;5753;54.402;10.220;2022-07-12T12:15:50;0.77;;;0.77;;
11394;SDS011;5753;54.402;10.220;2022-07-12T12:18:27;0.70;;;0.70;;
11394;SDS011;5753;54.402;10.220;2022-07-12T12:23:32;0.55;;;0.55;;
11394;SDS011;5753;54.402;10.220;2022-07-12T12:28:49;0.70;;;0.70;;
11394;SDS011;5753;54.402;10.220;2022-07-12T12:31:18;1.50;;;0.88;;
11394;SDS011;5753;54.402;10.220;2022-07-12T12:33:47;3.17;;;0.85;;
11394;SDS011;5753;54.402;10.220;2022-07-12T12:38:48;0.73;;;0.73;;
11394;SDS011;5753;54.402;10.220;2022-07-12T12:41:16;0.65;;;0.65;;
11394;SDS011;5753;54.402;10.220;2022-07-12T12:43:43;2.13;;;2.03;;
11394;SDS011;5753;54.402;10.220;2022-07-12T12:46:09;4.35;;;1.15;;
11394;SDS011;5753;54.402;10.220;2022-07-12T12:48:36;0.90;;;0.75;;
11394;SDS011;5753;54.402;10.220;2022-07-12T12:51:11;0.93;;;0.85;;
11394;SDS011;5753;54.402;10.220;2022-07-12T12:53:38;1.55;;;0.70;;
11394;SDS011;5753;54.402;10.220;2022-07-12T12:56:06;0.75;;;0.68;;
11394;SDS011;5753;54.402;10.220;2022-07-12T12:58:33;2.22;;;2.05;;
11394;SDS011;5753;54.402;10.220;2022-07-12T13:01:00;1.38;;;1.27;;
11394;SDS011;5753;54.402;10.220;2022-07-12T13:03:26;0.95;;;0.93;;
11394;SDS011;5753;54.402;10.220;2022-07-12T13:05:52;1.55;;;1.00;;
11394;SDS011;5753;54.402;10.220;2022-07-12T13:08:19;2.40;;;1.02;;
11394;SDS011;5753;54.402;10.220;2022-07-12T13:10:46;1.08;;;1.00;;
11394;SDS011;5753;54.402;10.220;2022-07-12T13:13:32;1.52;;;1.42;;
11394;SDS011;5753;54.402;10.220;2022-07-12T13:16:00;1.05;;;0.95;;
11394;SDS011;5753;54.402;10.220;2022-07-12T13:18:26;1.13;;;0.90;;
11394;SDS011;5753;54.402;10.220;2022-07-12T13:20:52;1.30;;;1.20;;
11394;SDS011;5753;54.402;10.220;2022-07-12T13:23:18;1.60;;;1.33;;
11394;SDS011;5753;54.402;10.220;2022-07-12T13:25:44;3.78;;;1.50;;
11394;SDS011;5753;54.402;10.220;2022-07-12T13:28:10;3.17;;;1.73;;
11394;SDS011;5753;54.402;10.220;2022-07-12T13:30:36;0.80;;;0.80;;
11394;SDS011;5753;54.402;10.220;2022-07-12T13:33:03;2.97;;;1.20;;
11394;SDS011;5753;54.402;10.220;2022-07-12T13:35:29;0.90;;;0.90;;
11394;SDS011;5753;54.402;10.220;2022-07-12T13:37:55;2.28;;;1.10;;
11394;SDS011;5753;54.402;10.220;2022-07-12T13:40:22;1.48;;;1.10;;
11394;SDS011;5753;54.402;10.220;2022-07-12T13:42:49;0.90;;;0.90;;
11394;SDS011;5753;54.402;10.220;2022-07-12T13:45:20;0.93;;;0.93;;
11394;SDS011;5753;54.402;10.220;2022-07-12T13:47:48;1.00;;;1.00;;
11394;SDS011;5753;54.402;10.220;2022-07-12T13:50:16;1.00;;;1.00;;
11394;SDS011;5753;54.402;10.220;2022-07-12T13:52:44;1.30;;;0.60;;
11394;SDS011;5753;54.402;10.220;2022-07-12T13:55:11;0.90;;;0.90;;
11394;SDS011;5753;54.402;10.220;2022-07-12T13:57:38;1.25;;;1.15;;
11394;SDS011;5753;54.402;10.220;2022-07-12T14:00:06;1.33;;;1.23;;
11394;SDS011;5753;54.402;10.220;2022-07-12T14:02:38;2.42;;;1.10;;
11394;SDS011;5753;54.402;10.220;2022-07-12T14:05:12;4.57;;;1.65;;
11394;SDS011;5753;54.402;10.220;2022-07-12T14:07:40;1.25;;;1.20;;
11394;SDS011;5753;54.402;10.220;2022-07-12T14:10:08;1.00;;;1.00;;
11394;SDS011;5753;54.402;10.220;2022-07-12T14:12:35;1.95;;;0.93;;
11394;SDS011;5753;54.402;10.220;2022-07-12T14:15:01;1.17;;;1.17;;
11394;SDS011;5753;54.402;10.220;2022-07-12T14:17:37;0.93;;;0.80;;
11394;SDS011;5753;54.402;10.220;2022-07-12T14:20:04;1.20;;;1.08;;
11394;SDS011;5753;54.402;10.220;2022-07-12T14:22:32;1.13;;;1.02;;
11394;SDS011;5753;54.402;10.220;2022-07-12T14:24:59;0.60;;;0.60;;
11394;SDS011;5753;54.402;10.220;2022-07-12T14:27:25;1.25;;;0.98;;
11394;SDS011;5753;54.402;10.220;2022-07-12T14:29:51;6.55;;;0.88;;
11394;SDS011;5753;54.402;10.220;2022-07-12T14:32:18;0.82;;;0.82;;
11394;SDS011;5753;54.402;10.220;2022-07-12T14:34:44;1.13;;;1.02;;
11394;SDS011;5753;54.402;10.220;2022-07-12T14:37:10;0.90;;;0.90;;
11394;SDS011;5753;54.402;10.220;2022-07-12T14:39:36;1.58;;;1.45;;
11394;SDS011;5753;54.402;10.220;2022-07-12T14:42:03;1.90;;;1.17;;
11394;SDS011;5753;54.402;10.220;2022-07-12T14:44:29;0.90;;;0.90;;
11394;SDS011;5753;54.402;10.220;2022-07-12T14:46:55;1.27;;;1.15;;
11394;SDS011;5753;54.402;10.220;2022-07-12T14:49:22;1.02;;;0.98;;
11394;SDS011;5753;54.402;10.220;2022-07-12T14:51:48;1.23;;;1.13;;
11394;SDS011;5753;54.402;10.220;2022-07-12T14:54:15;1.33;;;1.23;;
11394;SDS011;5753;54.402;10.220;2022-07-12T14:56:41;2.00;;;1.60;;
11394;SDS011;5753;54.402;10.220;2022-07-12T14:59:07;0.85;;;0.85;;
11394;SDS011;5753;54.402;10.220;2022-07-12T15:01:33;0.80;;;0.80;;
11394;SDS011;5753;54.402;10.220;2022-07-12T15:04:00;0.98;;;0.77;;
11394;SDS011;5753;54.402;10.220;2022-07-12T15:06:26;1.98;;;1.40;;
11394;SDS011;5753;54.402;10.220;2022-07-12T15:08:52;3.45;;;1.33;;
11394;SDS011;5753;54.402;10.220;2022-07-12T15:11:19;1.20;;;1.10;;
11394;SDS011;5753;54.402;10.220;2022-07-12T15:13:45;1.23;;;1.13;;
11394;SDS011;5753;54.402;10.220;2022-07-12T15:16:11;5.15;;;1.17;;
11394;SDS011;5753;54.402;10.220;2022-07-12T15:18:38;1.60;;;1.13;;
11394;SDS011;5753;54.402;10.220;2022-07-12T15:21:04;1.45;;;1.35;;
11394;SDS011;5753;54.402;10.220;2022-07-12T15:23:31;1.23;;;1.13;;
11394;SDS011;5753;54.402;10.220;2022-07-12T15:25:57;1.55;;;1.45;;
11394;SDS011;5753;54.402;10.220;2022-07-12T15:28:27;1.20;;;1.13;;
11394;SDS011;5753;54.402;10.220;2022-07-12T15:30:54;2.50;;;1.45;;
11394;SDS011;5753;54.402;10.220;2022-07-12T15:33:21;2.72;;;1.08;;
11394;SDS011;5753;54.402;10.220;2022-07-12T15:35:48;0.93;;;0.93;;
11394;SDS011;5753;54.402;10.220;2022-07-12T15:38:15;1.00;;;0.73;;
11394;SDS011;5753;54.402;10.220;2022-07-12T15:40:42;1.73;;;1.10;;
11394;SDS011;5753;54.402;10.220;2022-07-12T15:43:09;1.08;;;1.02;;
11394;SDS011;5753;54.402;10.220;2022-07-12T15:45:36;1.50;;;1.00;;
11394;SDS011;5753;54.402;10.220;2022-07-12T15:48:03;1.20;;;1.10;;
11394;SDS011;5753;54.402;10.220;2022-07-12T15:50:29;3.45;;;1.00;;
11394;SDS011;5753;54.402;10.220;2022-07-12T15:52:56;1.20;;;0.77;;
11394;SDS011;5753;54.402;10.220;2022-07-12T15:55:40;0.98;;;0.80;;
11394;SDS011;5753;54.402;10.220;2022-07-12T15:58:06;0.80;;;0.80;;
11394;SDS011;5753;54.402;10.220;2022-07-12T16:00:33;2.40;;;1.02;;
11394;SDS011;5753;54.402;10.220;2022-07-12T16:03:00;1.67;;;1.58;;
11394;SDS011;5753;54.402;10.220;2022-07-12T16:05:26;0.80;;;0.80;;
11394;SDS011;5753;54.402;10.220;2022-07-12T16:07:52;0.77;;;0.73;;
11394;SDS011;5753;54.402;10.220;2022-07-12T16:10:19;0.90;;;0.90;;
11394;SDS011;5753;54.402;10.220;2022-07-12T16:12:45;0.50;;;0.50;;
11394;SDS011;5753;54.402;10.220;2022-07-12T16:15:11;1.17;;;1.08;;
11394;SDS011;5753;54.402;10.220;2022-07-12T16:17:38;0.32;;;0.32;;
11394;SDS011;5753;54.402;10.220;2022-07-12T16:20:05;2.00;;;1.80;;
11394;SDS011;5753;54.402;10.220;2022-07-12T16:22:31;1.13;;;0.90;;
11394;SDS011;5753;54.402;10.220;2022-07-12T16:24:57;2.90;;;1.00;;
11394;SDS011;5753;54.402;10.220;2022-07-12T16:27:23;0.40;;;0.40;;
11394;SDS011;5753;54.402;10.220;2022-07-12T16:29:49;0.90;;;0.60;;
11394;SDS011;5753;54.402;10.220;2022-07-12T16:32:16;1.75;;;0.80;;
11394;SDS011;5753;54.402;10.220;2022-07-12T16:34:42;1.52;;;1.15;;
11394;SDS011;5753;54.402;10.220;2022-07-12T16:37:09;1.38;;;0.80;;
11394;SDS011;5753;54.402;10.220;2022-07-12T16:39:35;4.13;;;1.63;;
11394;SDS011;5753;54.402;10.220;2022-07-12T16:42:04;4.07;;;1.02;;
11394;SDS011;5753;54.402;10.220;2022-07-12T16:44:31;0.80;;;0.80;;
11394;SDS011;5753;54.402;10.220;2022-07-12T16:46:57;0.57;;;0.57;;
11394;SDS011;5753;54.402;10.220;2022-07-12T16:49:23;0.70;;;0.70;;
11394;SDS011;5753;54.402;10.220;2022-07-12T16:51:49;1.20;;;0.70;;
11394;SDS011;5753;54.402;10.220;2022-07-12T16:54:15;1.83;;;0.90;;
11394;SDS011;5753;54.402;10.220;2022-07-12T16:56:42;1.10;;;0.93;;
11394;SDS011;5753;54.402;10.220;2022-07-12T16:59:08;1.00;;;0.88;;
11394;SDS011;5753;54.402;10.220;2022-07-12T17:01:34;3.90;;;0.77;;
11394;SDS011;5753;54.402;10.220;2022-07-12T17:04:00;1.88;;;0.80;;
11394;SDS011;5753;54.402;10.220;2022-07-12T17:06:27;1.20;;;1.10;;
11394;SDS011;5753;54.402;10.220;2022-07-12T17:08:54;2.53;;;1.05;;
11394;SDS011;5753;54.402;10.220;2022-07-12T17:11:20;2.38;;;1.00;;
11394;SDS011;5753;54.402;10.220;2022-07-12T17:13:46;2.88;;;1.30;;
11394;SDS011;5753;54.402;10.220;2022-07-12T17:16:13;1.55;;;1.00;;
11394;SDS011;5753;54.402;10.220;2022-07-12T17:18:39;0.80;;;0.70;;
11394;SDS011;5753;54.402;10.220;2022-07-12T17:21:05;1.02;;;1.00;;
11394;SDS011;5753;54.402;10.220;2022-07-12T17:23:32;2.22;;;1.02;;
11394;SDS011;5753;54.402;10.220;2022-07-12T17:25:58;0.77;;;0.68;;
11394;SDS011;5753;54.402;10.220;2022-07-12T17:28:25;1.17;;;1.05;;
11394;SDS011;5753;54.402;10.220;2022-07-12T17:30:52;1.35;;;1.17;;
11394;SDS011;5753;54.402;10.220;2022-07-12T17:33:19;0.65;;;0.65;;
11394;SDS011;5753;54.402;10.220;2022-07-12T17:35:45;0.70;;;0.65;;
11394;SDS011;5753;54.402;10.220;2022-07-12T17:38:12;1.13;;;0.93;;
11394;SDS011;5753;54.402;10.220;2022-07-12T17:40:38;1.00;;;0.95;;
11394;SDS011;5753;54.402;10.220;2022-07-12T17:43:04;2.60;;;1.13;;
11394;SDS011;5753;54.402;10.220;2022-07-12T17:45:31;1.77;;;0.85;;
11394;SDS011;5753;54.402;10.220;2022-07-12T17:47:57;1.20;;;0.98;;
11394;SDS011;5753;54.402;10.220;2022-07-12T17:50:23;0.63;;;0.63;;
11394;SDS011;5753;54.402;10.220;2022-07-12T17:52:50;1.65;;;0.77;;
11394;SDS011;5753;54.402;10.220;2022-07-12T17:55:17;1.35;;;0.80;;
11394;SDS011;5753;54.402;10.220;2022-07-12T17:57:43;0.95;;;0.90;;
11394;SDS011;5753;54.402;10.220;2022-07-12T18:00:28;0.73;;;0.70;;
11394;SDS011;5753;54.402;10.220;2022-07-12T18:02:59;0.70;;;0.70;;
11394;SDS011;5753;54.402;10.220;2022-07-12T18:05:26;0.88;;;0.85;;
11394;SDS011;5753;54.402;10.220;2022-07-12T18:07:53;1.25;;;1.25;;
11394;SDS011;5753;54.402;10.220;2022-07-12T18:10:19;2.05;;;0.60;;
11394;SDS011;5753;54.402;10.220;2022-07-12T18:12:45;2.50;;;0.93;;
11394;SDS011;5753;54.402;10.220;2022-07-12T18:15:30;1.02;;;1.00;;
11394;SDS011;5753;54.402;10.220;2022-07-12T18:17:57;1.63;;;0.77;;
11394;SDS011;5753;54.402;10.220;2022-07-12T18:20:26;3.03;;;0.98;;
11394;SDS011;5753;54.402;10.220;2022-07-12T18:22:57;1.52;;;0.88;;
11394;SDS011;5753;54.402;10.220;2022-07-12T18:25:23;0.63;;;0.57;;
11394;SDS011;5753;54.402;10.220;2022-07-12T18:27:50;0.95;;;0.90;;
11394;SDS011;5753;54.402;10.220;2022-07-12T18:30:18;1.00;;;0.90;;
11394;SDS011;5753;54.402;10.220;2022-07-12T18:32:45;1.15;;;0.80;;
11394;SDS011;5753;54.402;10.220;2022-07-12T18:35:11;0.80;;;0.70;;
11394;SDS011;5753;54.402;10.220;2022-07-12T18:37:38;1.58;;;1.33;;
11394;SDS011;5753;54.402;10.220;2022-07-12T18:40:05;0.70;;;0.70;;
11394;SDS011;5753;54.402;10.220;2022-07-12T18:42:32;1.83;;;1.20;;
11394;SDS011;5753;54.402;10.220;2022-07-12T18:44:59;1.05;;;0.95;;
11394;SDS011;5753;54.402;10.220;2022-07-12T18:47:26;3.03;;;1.63;;
11394;SDS011;5753;54.402;10.220;2022-07-12T18:49:52;1.45;;;1.20;;
11394;SDS011;5753;54.402;10.220;2022-07-12T18:52:18;1.92;;;1.67;;
11394;SDS011;5753;54.402;10.220;2022-07-12T18:54:45;1.17;;;0.93;;
11394;SDS011;5753;54.402;10.220;2022-07-12T18:57:12;2.58;;;1.30;;
11394;SDS011;5753;54.402;10.220;2022-07-12T18:59:38;1.67;;;1.27;;
11394;SDS011;5753;54.402;10.220;2022-07-12T19:02:04;2.10;;;1.80;;
11394;SDS011;5753;54.402;10.220;2022-07-12T19:04:30;1.85;;;1.30;;
11394;SDS011;5753;54.402;10.220;2022-07-12T19:06:57;1.67;;;1.40;;
11394;SDS011;5753;54.402;10.220;2022-07-12T19:09:23;1.90;;;1.70;;
11394;SDS011;5753;54.402;10.220;2022-07-12T19:11:49;2.42;;;1.60;;
11394;SDS011;5753;54.402;10.220;2022-07-12T19:14:15;2.10;;;1.88;;
11394;SDS011;5753;54.402;10.220;2022-07-12T19:16:41;1.63;;;1.40;;